DW9845 Weather Reports


Display with metric or nautical units.
time (UTC)temp
F
wind
direction
speed
MPH
gust
MPH
rain 1hr
in
rain 24hr
in
rain mn
in
humidity
%
barometer
mb
20230129195204 77 167 3.0 8.0 0.00 0.38 0.38 84 1012.7
20230129194704 77 172 3.0 8.0 0.00 0.38 0.38 83 1012.8
20230129194206 77 150 3.0 7.0 0.00 0.38 0.38 83 1012.9
20230129193704 77 187 3.0 8.0 0.00 0.38 0.38 83 1012.9
20230129193204 77 173 3.0 8.0 0.00 0.38 0.38 83 1013.0
20230129192704 77 187 3.0 8.0 0.00 0.38 0.38 84 1013.0
20230129192204 77 149 3.0 7.0 0.00 0.38 0.38 84 1013.2
20230129191704 77 131 2.0 7.0 0.00 0.38 0.38 84 1013.2
20230129191204 77 167 3.0 7.0 0.00 0.38 0.38 85 1013.2
20230129190704 77 206 3.0 8.0 0.00 0.38 0.38 84 1013.2
20230129190205 77 155 2.0 8.0 0.00 0.38 0.38 84 1013.3
20230129185704 77 185 3.0 9.0 0.00 0.38 0.38 84 1013.5
20230129185204 77 174 3.0 10.0 0.00 0.38 0.38 84 1013.6
20230129184204 77 163 5.0 10.0 0.00 0.38 0.38 83 1013.6
20230129183705 77 176 5.0 9.0 0.00 0.38 0.38 82 1013.6
20230129183205 78 167 5.0 10.0 0.00 0.38 0.38 83 1013.8
20230129182704 78 159 5.0 10.0 0.00 0.38 0.38 83 1013.8
20230129182205 78 194 5.0 13.0 0.00 0.38 0.38 83 1013.8
20230129181705 78 182 5.0 13.0 0.00 0.38 0.38 83 1013.9
20230129181205 78 212 5.0 10.0 0.00 0.38 0.38 84 1013.9
20230129180704 77 196 4.0 9.0 0.00 0.38 0.38 85 1014.2
20230129175705 77 255 3.0 11.0 0.00 0.38 0.38 86 1014.3
20230129175204 77 184 4.0 11.0 0.00 0.38 0.38 86 1014.4
20230129174704 77 174 5.0 12.0 0.00 0.38 0.38 85 1014.5
20230129174205 77 185 5.0 12.0 0.00 0.38 0.38 85 1014.7
20230129173705 77 172 5.0 12.0 0.00 0.38 0.38 85 1014.7
20230129173204 77 181 5.0 12.0 0.00 0.38 0.38 85 1014.8
20230129172205 76 183 4.0 13.0 0.00 0.38 0.38 89 1014.9
20230129171704 76 161 4.0 13.0 0.00 0.38 0.38 92 1014.9
20230129171204 75 188 3.0 13.0 0.04 0.38 0.38 92 1015.1
20230129170205 75 173 3.0 8.0 0.04 0.38 0.38 93 1015.4
20230129165705 74 189 3.0 12.0 0.04 0.38 0.38 94 1015.3
20230129165206 74 187 3.0 12.0 0.04 0.38 0.38 95 1015.5
20230129164704 74 192 3.0 12.0 0.04 0.38 0.38 95 1015.5
20230129163704 73 199 3.0 8.0 0.04 0.38 0.38 95 1015.6
20230129163205 73 203 2.0 8.0 0.04 0.38 0.38 95 1015.6
20230129162705 73 197 2.0 8.0 0.04 0.38 0.38 95 1015.7
20230129162206 73 194 3.0 8.0 0.04 0.38 0.38 95 1015.8
20230129161704 73 219 3.0 8.0 0.03 0.37 0.37 94 1015.8
20230129161204 74 183 3.0 8.0 0.00 0.34 0.34 94 1016.1
20230129160705 73 197 3.0 8.0 0.00 0.34 0.34 95 1015.8
20230129160204 73 183 3.0 8.0 0.00 0.34 0.34 95 1016.0
20230129155704 73 186 3.0 8.0 0.00 0.34 0.34 95 1016.0
20230129155204 73 207 4.0 8.0 0.00 0.34 0.34 95 1016.1
20230129154704 73 169 3.0 11.0 0.00 0.34 0.34 96 1016.0
20230129154204 73 204 3.0 11.0 0.00 0.34 0.34 96 1015.7
20230129153204 72 188 2.0 8.0 0.00 0.34 0.34 97 1015.6
20230129152204 72 192 3.0 7.0 0.00 0.34 0.34 97 1015.4
20230129151705 72 215 3.0 7.0 0.00 0.34 0.34 97 1015.6
20230129151205 72 150 3.0 8.0 0.00 0.34 0.34 97 1015.4
20230129150704 71 176 3.0 8.0 0.00 0.34 0.34 98 1015.4
20230129150204 71 203 3.0 7.0 0.01 0.34 0.34 98 1015.1
20230129145704 71 194 2.0 6.0 0.03 0.34 0.34 98 1015.2
20230129145205 71 184 2.0 6.0 0.03 0.34 0.34 98 1015.1
20230129144204 71 198 2.0 6.0 0.06 0.34 0.34 98 1014.9
20230129143704 70 182 2.0 6.0 0.06 0.34 0.34 98 1014.7
20230129143204 70 179 1.0 4.0 0.06 0.34 0.34 98 1014.8
20230129142704 69 192 0.0 2.0 0.06 0.35 0.34 97 1014.7
20230129141704 69 192 0.0 1.0 0.06 0.37 0.34 97 1014.7
20230129141204 69 192 0.0 0.0 0.06 0.37 0.34 97 1014.6
20230129140704 69 192 0.0 1.0 0.05 0.36 0.33 97 1014.7
20230129135705 69 192 0.0 4.0 0.06 0.34 0.31 97 1014.5
20230129135204 69 192 0.0 4.0 0.09 0.34 0.31 97 1014.6
20230129134704 69 192 0.0 4.0 0.09 0.32 0.28 97 1014.5
20230129133705 69 192 1.0 6.0 0.17 0.32 0.28 97 1014.5
20230129133206 69 192 2.0 6.0 0.17 0.32 0.28 97 1014.4
20230129132204 69 175 1.0 5.0 0.17 0.32 0.28 97 1014.4
20230129131704 69 189 1.0 4.0 0.17 0.33 0.28 97 1014.3
20230129131205 69 188 1.0 4.0 0.18 0.33 0.28 97 1014.3
20230129130704 69 188 1.0 4.0 0.17 0.32 0.27 97 1014.0
20230129130206 69 186 1.0 4.0 0.15 0.31 0.25 97 1013.9
20230129125206 69 191 1.0 4.0 0.11 0.28 0.21 97 1013.9
20230129124704 69 190 1.0 4.0 0.09 0.27 0.18 97 1014.0
20230129124206 69 207 1.0 4.0 0.04 0.22 0.14 97 1014.0
20230129123706 68 208 1.0 4.0 0.01 0.20 0.11 97 1014.0
20230129123205 68 173 1.0 4.0 0.01 0.20 0.11 97 1014.0
20230129122705 68 175 1.0 4.0 0.01 0.20 0.11 97 1014.0
20230129122205 68 179 1.0 4.0 0.01 0.20 0.11 96 1014.1
20230129121705 68 180 1.0 4.0 0.02 0.20 0.11 96 1014.2
20230129121205 68 190 1.0 4.0 0.03 0.19 0.10 96 1014.2
20230129120704 68 190 0.0 4.0 0.09 0.19 0.10 96 1014.2
20230129120205 68 186 1.0 4.0 0.09 0.19 0.10 96 1014.2
20230129115703 69 186 1.0 4.0 0.09 0.19 0.10 96 1014.3
20230129115204 69 182 1.0 4.0 0.09 0.19 0.10 96 1014.3
20230129114705 69 182 1.0 5.0 0.09 0.19 0.10 96 1014.3
20230129114204 69 182 1.0 5.0 0.09 0.19 0.10 96 1014.3
20230129113706 69 178 1.0 5.0 0.09 0.20 0.10 96 1014.4
20230129113205 69 178 1.0 5.0 0.09 0.20 0.10 96 1014.5
20230129112704 69 178 1.0 5.0 0.09 0.20 0.10 96 1014.4
20230129112204 69 173 0.0 2.0 0.09 0.20 0.10 96 1014.3
20230129111204 69 171 0.0 5.0 0.06 0.17 0.07 95 1014.6
20230129110704 69 171 0.0 5.0 0.00 0.12 0.01 95 1014.7
20230129110205 69 192 0.0 3.0 0.00 0.12 0.01 95 1014.7
20230129105704 69 192 0.0 3.0 0.00 0.12 0.01 95 1014.8
20230129105204 69 192 0.0 3.0 0.00 0.12 0.01 95 1014.8
20230129104705 69 192 0.0 3.0 0.00 0.12 0.01 95 1014.9
20230129104204 68 192 0.0 2.0 0.00 0.12 0.01 95 1014.8
20230129103705 68 192 0.0 2.0 0.00 0.12 0.01 95 1014.9
20230129103204 68 196 0.0 2.0 0.00 0.12 0.01 95 1014.8
20230129102704 68 196 0.0 2.0 0.00 0.12 0.01 95 1014.8
20230129102204 68 196 0.0 2.0 0.00 0.13 0.01 95 1014.8
20230129101705 68 196 0.0 2.0 0.00 0.13 0.01 94 1014.8
20230129101204 68 196 0.0 2.0 0.00 0.13 0.01 94 1014.8
20230129100705 68 196 0.0 3.0 0.00 0.14 0.01 94 1014.7
20230129100205 68 196 0.0 3.0 0.00 0.14 0.01 94 1014.8
20230129095704 68 197 0.0 3.0 0.00 0.14 0.01 94 1014.9
20230129095204 69 197 0.0 2.0 0.00 0.14 0.01 94 1014.9
20230129094204 69 196 0.0 2.0 0.00 0.14 0.01 94 1015.1
20230129093704 69 197 0.0 1.0 0.00 0.14 0.01 94 1015.1
20230129093205 69 196 0.0 1.0 0.00 0.14 0.01 94 1015.1
20230129092705 69 196 0.0 2.0 0.00 0.14 0.01 94 1015.2
20230129092204 69 197 0.0 2.0 0.00 0.14 0.01 94 1015.1
20230129091704 69 196 0.0 1.0 0.00 0.14 0.01 94 1015.2
20230129091204 69 197 0.0 2.0 0.00 0.14 0.01 94 1015.2
20230129090705 69 197 0.0 2.0 0.00 0.14 0.01 94 1015.2
20230129090205 69 196 0.0 2.0 0.00 0.14 0.01 94 1015.3
20230129085704 69 197 0.0 3.0 0.00 0.14 0.01 94 1015.3
20230129085204 69 197 0.0 3.0 0.00 0.14 0.01 93 1015.3
20230129084705 69 196 0.0 3.0 0.00 0.14 0.01 93 1015.2
20230129084204 69 196 0.0 3.0 0.00 0.14 0.01 93 1015.2
20230129083704 69 196 0.0 4.0 0.00 0.14 0.01 93 1015.3
20230129083204 69 196 0.0 4.0 0.00 0.14 0.01 93 1015.4
20230129082705 69 196 1.0 5.0 0.00 0.14 0.01 93 1015.6
20230129081705 69 171 1.0 5.0 0.00 0.14 0.01 93 1015.6
20230129081205 69 181 1.0 5.0 0.00 0.14 0.01 93 1015.7
20230129080703 69 227 1.0 5.0 0.00 0.14 0.01 93 1015.8
20230129080204 69 202 1.0 5.0 0.01 0.14 0.01 93 1015.7
20230129075704 69 202 1.0 6.0 0.01 0.14 0.01 93 1015.9
20230129075204 69 188 2.0 6.0 0.01 0.14 0.01 93 1015.9
20230129074704 69 175 2.0 6.0 0.01 0.14 0.01 93 1015.9
20230129074204 69 192 1.0 5.0 0.01 0.14 0.01 93 1016.0
20230129073705 69 192 1.0 6.0 0.01 0.14 0.01 93 1016.1
20230129072705 69 186 1.0 6.0 0.01 0.14 0.01 93 1016.1
20230129072205 69 199 1.0 4.0 0.01 0.14 0.01 93 1016.2
20230129071205 70 196 1.0 4.0 0.01 0.14 0.01 93 1016.3
20230129070705 70 179 1.0 4.0 0.00 0.13 0.00 93 1016.3
20230129070205 70 180 1.0 5.0 0.00 0.13 0.00 93 1016.3
20230129065704 70 173 1.0 5.0 0.00 0.13 0.00 93 1016.4
20230129065204 70 182 1.0 5.0 0.00 0.13 0.00 93 1016.4
20230129064704 70 192 1.0 4.0 0.00 0.13 0.00 93 1016.4
20230129064205 69 194 1.0 3.0 0.00 0.13 0.00 92 1016.3
20230129063705 69 194 1.0 3.0 0.00 0.13 0.00 92 1016.5
20230129063204 69 194 0.0 3.0 0.00 0.13 0.00 92 1016.5
20230129062704 69 194 0.0 3.0 0.00 0.13 0.00 92 1016.6
20230129062205 69 194 0.0 3.0 0.00 0.13 0.00 92 1016.5
20230129061704 69 194 0.0 2.0 0.00 0.13 0.00 92 1016.6
20230129061205 69 194 0.0 4.0 0.00 0.13 0.00 92 1016.7
20230129060704 69 194 0.0 4.0 0.00 0.13 0.00 92 1016.7
20230129060206 69 194 0.0 4.0 0.00 0.13 0.00 92 1016.7
20230129055704 69 194 1.0 4.0 0.00 0.13 0.00 92 1016.7
20230129055204 69 182 1.0 5.0 0.00 0.13 0.00 92 1016.7
20230129054705 69 175 1.0 5.0 0.00 0.13 0.00 92 1016.6
20230129054205 69 166 1.0 5.0 0.00 0.13 0.00 92 1016.6
20230129053704 69 163 1.0 4.0 0.00 0.13 0.00 92 1016.6
20230129053205 69 189 1.0 4.0 0.00 0.13 0.00 92 1016.7
20230129052704 69 186 1.0 4.0 0.00 0.13 0.00 92 1016.7
20230129052205 69 199 1.0 4.0 0.00 0.13 0.00 92 1016.6
20230129051705 69 194 1.0 5.0 0.00 0.13 0.00 91 1016.6
20230129051206 69 189 1.0 5.0 0.00 0.13 0.00 91 1016.6
20230129050204 69 175 1.0 6.0 0.00 0.13 0.00 91 1016.7
20230129045704 69 210 2.0 5.0 0.00 0.13 0.00 91 1016.8
20230129045204 69 168 2.0 5.0 0.00 0.13 0.00 91 1016.8
20230129044705 70 164 2.0 5.0 0.00 0.13 0.00 90 1016.7
20230129044205 70 192 1.0 6.0 0.00 0.13 0.00 90 1016.8
20230129043704 70 206 2.0 6.0 0.00 0.13 0.00 90 1016.9
20230129043204 70 215 2.0 5.0 0.00 0.13 0.00 90 1017.0
20230129042705 70 198 2.0 5.0 0.00 0.13 0.00 90 1017.0
20230129042204 70 200 2.0 6.0 0.00 0.13 0.00 90 1016.9
20230129041704 70 180 2.0 7.0 0.00 0.13 0.00 90 1017.0
20230129041204 70 217 2.0 7.0 0.00 0.13 0.00 90 1017.0
20230129040705 70 192 2.0 6.0 0.00 0.13 0.00 90 1017.0
20230129035204 70 196 3.0 7.0 0.00 0.13 0.00 90 1016.8
20230129034705 70 199 3.0 7.0 0.00 0.13 0.00 90 1016.8
20230129034204 70 188 2.0 6.0 0.00 0.13 0.00 90 1016.8
20230129033704 70 202 2.0 6.0 0.00 0.13 0.00 90 1016.8
20230129033204 70 200 2.0 8.0 0.00 0.13 0.00 90 1016.8
20230129032705 70 186 3.0 8.0 0.00 0.13 0.00 90 1016.8
20230129032204 70 190 3.0 8.0 0.00 0.13 0.00 90 1016.9
20230129031704 70 192 2.0 8.0 0.00 0.13 0.00 90 1016.9
20230129031205 70 202 2.0 8.0 0.00 0.13 0.00 90 1016.8
20230129030704 70 201 3.0 8.0 0.00 0.13 0.00 90 1016.8
20230129025704 70 193 1.0 5.0 0.00 0.13 0.00 90 1016.8
20230129025205 70 198 1.0 5.0 0.00 0.13 0.00 90 1016.8
20230129024705 70 191 1.0 5.0 0.00 0.13 0.00 89 1016.7
20230129024204 70 212 2.0 6.0 0.00 0.13 0.00 89 1016.7
20230129023704 70 192 2.0 6.0 0.00 0.13 0.00 89 1016.6
20230129023205 70 207 2.0 9.0 0.00 0.13 0.00 89 1016.7
20230129022705 70 203 2.0 9.0 0.00 0.13 0.00 89 1016.7
20230129021704 70 190 2.0 7.0 0.00 0.13 0.00 89 1016.5
20230129021204 70 200 2.0 7.0 0.00 0.13 0.00 89 1016.5
20230129020704 70 205 2.0 5.0 0.00 0.13 0.00 89 1016.4
20230129020205 70 200 2.0 8.0 0.00 0.13 0.00 89 1016.4
20230129015704 70 207 2.0 8.0 0.00 0.13 0.00 89 1016.4
20230129015204 70 209 2.0 8.0 0.00 0.13 0.00 89 1016.4
20230129014706 70 181 2.0 7.0 0.00 0.13 0.00 89 1016.4
20230129014204 70 188 2.0 7.0 0.00 0.13 0.00 89 1016.3
20230129013705 70 152 2.0 7.0 0.00 0.13 0.00 89 1016.2
20230129013204 70 193 2.0 7.0 0.00 0.13 0.00 89 1016.2
20230129012704 70 191 2.0 7.0 0.00 0.13 0.00 88 1016.2
20230129012204 70 175 2.0 7.0 0.00 0.13 0.00 88 1016.2
20230129011704 70 190 2.0 5.0 0.00 0.13 0.00 88 1016.0
20230129011204 70 188 2.0 7.0 0.00 0.13 0.00 88 1015.9
20230129010204 70 207 1.0 6.0 0.00 0.13 0.00 88 1015.9
20230129005705 70 186 2.0 7.0 0.00 0.13 0.00 87 1016.0
20230129005205 70 193 2.0 7.0 0.00 0.13 0.00 87 1016.0
20230129004706 70 192 2.0 7.0 0.00 0.13 0.00 87 1015.9
20230129004204 70 168 2.0 7.0 0.00 0.13 0.00 87 1015.8
20230129003704 70 203 2.0 6.0 0.00 0.13 0.00 87 1015.8
20230129003206 70 197 2.0 5.0 0.00 0.13 0.00 87 1015.8
20230129002704 70 203 2.0 7.0 0.00 0.13 0.00 86 1015.8
20230129002206 70 198 2.0 7.0 0.00 0.13 0.00 86 1015.8
20230129001705 70 180 2.0 7.0 0.00 0.13 0.00 86 1015.8
20230129001204 70 175 2.0 6.0 0.00 0.13 0.00 86 1015.8
20230129000706 71 194 2.0 7.0 0.00 0.13 0.00 85 1015.8
20230129000204 71 223 3.0 11.0 0.00 0.13 0.13 85 1015.8
20230128235705 71 178 3.0 11.0 0.00 0.13 0.13 85 1015.9
20230128234704 71 202 3.0 11.0 0.00 0.13 0.13 85 1015.8
20230128234205 71 225 3.0 11.0 0.00 0.13 0.13 85 1015.8
20230128233704 71 176 4.0 11.0 0.00 0.13 0.13 85 1015.7
20230128233204 71 195 4.0 11.0 0.00 0.13 0.13 84 1015.7
20230128232704 71 194 3.0 9.0 0.00 0.13 0.13 84 1015.7
20230128232205 71 212 3.0 9.0 0.00 0.13 0.13 84 1015.8
20230128231706 71 220 3.0 9.0 0.00 0.13 0.13 84 1015.8
20230128231204 71 199 3.0 9.0 0.00 0.13 0.13 84 1015.7
20230128230705 71 199 3.0 9.0 0.00 0.13 0.13 84 1015.7
20230128230205 71 190 4.0 9.0 0.00 0.13 0.13 83 1015.7
20230128225703 72 194 3.0 8.0 0.00 0.13 0.13 83 1015.8
20230128224205 72 193 4.0 10.0 0.00 0.13 0.13 82 1015.8
20230128223705 72 207 3.0 8.0 0.00 0.13 0.13 82 1015.7
20230128222704 72 160 3.0 9.0 0.00 0.13 0.13 82 1015.6
20230128222204 72 205 3.0 12.0 0.00 0.13 0.13 81 1015.6
20230128221706 72 205 4.0 12.0 0.00 0.13 0.13 81 1015.7
20230128221205 72 157 4.0 12.0 0.00 0.13 0.13 81 1015.6
20230128220705 72 219 4.0 11.0 0.00 0.13 0.13 81 1015.6
20230128220205 72 198 4.0 12.0 0.00 0.13 0.13 81 1015.6
20230128215704 72 225 5.0 12.0 0.00 0.13 0.13 81 1015.7
20230128215205 72 207 4.0 9.0 0.00 0.13 0.13 80 1015.7
20230128214704 72 185 4.0 9.0 0.00 0.13 0.13 81 1015.8
20230128214204 72 183 4.0 9.0 0.00 0.13 0.13 81 1015.6
20230128213704 72 201 4.0 8.0 0.00 0.13 0.13 80 1015.7
20230128213204 72 227 4.0 9.0 0.00 0.13 0.13 80 1015.7
20230128212204 72 210 3.0 13.0 0.00 0.13 0.13 80 1015.6
20230128211704 73 192 5.0 13.0 0.00 0.13 0.13 79 1015.5
20230128211206 73 198 5.0 13.0 0.00 0.13 0.13 79 1015.6
20230128210704 72 196 4.0 10.0 0.00 0.13 0.13 79 1015.6
20230128210205 72 190 5.0 11.0 0.00 0.13 0.13 79 1015.6
20230128205704 72 195 5.0 12.0 0.00 0.13 0.13 79 1015.7
20230128205205 72 182 5.0 12.0 0.00 0.13 0.13 78 1015.8
20230128203704 73 167 5.0 15.0 0.00 0.13 0.13 78 1015.8
20230128203205 72 198 6.0 15.0 0.00 0.13 0.13 79 1015.8
20230128202704 72 177 6.0 15.0 0.00 0.13 0.13 79 1015.9
20230128201704 72 162 5.0 11.0 0.00 0.13 0.13 79 1015.8
20230128201205 72 173 6.0 14.0 0.00 0.13 0.13 80 1015.8
20230128200204 72 190 5.0 14.0 0.00 0.13 0.13 80 1016.0
20230128195704 72 182 4.0 10.0 0.00 0.13 0.13 80 1015.9